createdAt,value
2019-01-24T00:00:19.591Z,0.00
2019-01-24T00:01:19.579Z,0.00
2019-01-24T00:02:19.577Z,0.00
2019-01-24T00:03:19.557Z,0.00
2019-01-24T00:04:19.545Z,0.00
2019-01-24T00:05:19.565Z,0.00
2019-01-24T00:06:19.810Z,0.00
2019-01-24T00:07:19.518Z,0.00
2019-01-24T00:08:19.505Z,0.00
2019-01-24T00:09:19.495Z,0.00
2019-01-24T00:10:19.490Z,0.00
2019-01-24T00:11:19.521Z,0.00
2019-01-24T00:12:19.468Z,0.00
2019-01-24T00:13:19.739Z,0.00
2019-01-24T00:14:19.453Z,0.00
2019-01-24T00:15:19.448Z,0.00
2019-01-24T00:16:19.451Z,0.00
2019-01-24T00:17:19.446Z,0.00
2019-01-24T00:18:19.472Z,0.00
2019-01-24T00:19:19.397Z,0.00
2019-01-24T00:20:19.695Z,0.00
2019-01-24T00:21:19.378Z,0.00
2019-01-24T00:22:19.363Z,0.00
2019-01-24T00:23:19.397Z,0.00
2019-01-24T00:24:19.346Z,0.00
2019-01-24T00:25:19.346Z,0.00
2019-01-24T00:26:19.325Z,0.00
2019-01-24T00:27:19.610Z,0.00
2019-01-24T00:28:19.305Z,0.00
2019-01-24T00:29:19.338Z,0.00
2019-01-24T00:30:19.286Z,0.00
2019-01-24T00:31:19.273Z,0.00
2019-01-24T00:32:19.263Z,0.00
2019-01-24T00:33:19.255Z,0.00
2019-01-24T00:34:23.275Z,0.00
2019-01-24T00:35:19.258Z,0.00
2019-01-24T00:36:19.224Z,0.00
2019-01-24T00:37:19.213Z,0.00
2019-01-24T00:38:19.206Z,0.00
2019-01-24T00:39:19.192Z,0.00
2019-01-24T00:40:19.188Z,0.00
2019-01-24T00:41:19.485Z,0.00
2019-01-24T00:42:19.170Z,0.00
2019-01-24T00:43:19.155Z,0.00
2019-01-24T00:44:19.144Z,0.00
2019-01-24T00:45:19.132Z,0.00
2019-01-24T00:46:19.122Z,0.00
2019-01-24T00:47:19.312Z,0.00
2019-01-24T00:48:19.380Z,0.00
2019-01-24T00:49:19.091Z,0.00
2019-01-24T00:50:19.080Z,0.00
2019-01-24T00:51:19.074Z,0.00
2019-01-24T00:52:19.965Z,0.00
2019-01-24T00:53:19.083Z,0.00
2019-01-24T00:54:19.042Z,0.00
2019-01-24T00:55:19.309Z,0.00
2019-01-24T00:56:19.020Z,0.00
2019-01-24T00:57:19.010Z,0.00
2019-01-24T00:58:18.999Z,0.00
2019-01-24T00:59:19.017Z,0.00
2019-01-24T01:00:18.990Z,0.00
2019-01-24T01:01:19.280Z,0.00
2019-01-24T01:02:18.962Z,0.00
2019-01-24T01:03:18.949Z,0.00
2019-01-24T01:04:18.950Z,0.00
2019-01-24T01:05:19.115Z,0.00
2019-01-24T01:06:18.931Z,0.00
2019-01-24T01:07:19.074Z,0.00
2019-01-24T01:08:19.244Z,0.00
2019-01-24T01:09:18.894Z,0.00
2019-01-24T01:10:18.887Z,0.00
2019-01-24T01:11:18.898Z,0.00
2019-01-24T01:12:18.882Z,0.00
2019-01-24T01:13:18.848Z,0.00
2019-01-24T01:14:18.839Z,0.00
2019-01-24T01:15:20.149Z,0.00
2019-01-24T01:16:18.819Z,0.00
2019-01-24T01:17:18.838Z,0.00
2019-01-24T01:18:18.800Z,0.00
2019-01-24T01:19:18.790Z,0.00
2019-01-24T01:20:18.797Z,0.00
2019-01-24T01:21:18.771Z,0.00
2019-01-24T01:22:19.042Z,0.00
2019-01-24T01:23:18.830Z,0.00
2019-01-24T01:24:18.738Z,0.00
2019-01-24T01:25:18.727Z,0.00
2019-01-24T01:26:18.724Z,0.00
2019-01-24T01:27:18.706Z,0.00
2019-01-24T01:28:18.973Z,0.00
2019-01-24T01:29:18.716Z,0.00
2019-01-24T01:30:18.677Z,0.00
2019-01-24T01:31:18.672Z,0.00
2019-01-24T01:32:18.658Z,0.00
2019-01-24T01:33:18.649Z,0.00
2019-01-24T01:34:18.642Z,0.00
2019-01-24T01:35:18.656Z,0.00
2019-01-24T01:36:18.616Z,0.00
2019-01-24T01:37:18.607Z,0.00
2019-01-24T01:38:18.598Z,0.00
2019-01-24T01:39:18.589Z,0.00
2019-01-24T01:40:18.884Z,0.00
2019-01-24T01:41:18.616Z,0.00
2019-01-24T01:42:18.556Z,0.00
2019-01-24T01:43:18.544Z,0.00
2019-01-24T01:44:18.536Z,0.00
2019-01-24T01:45:18.526Z,0.00
2019-01-24T01:46:18.522Z,0.00
2019-01-24T01:47:18.538Z,0.00
2019-01-24T01:48:18.496Z,0.00
2019-01-24T01:49:18.508Z,0.00
2019-01-24T01:50:18.476Z,0.00
2019-01-24T01:51:18.463Z,0.00
2019-01-24T01:52:18.737Z,0.00
2019-01-24T01:53:18.473Z,0.00
2019-01-24T01:54:18.443Z,0.00
2019-01-24T01:55:18.425Z,0.00
2019-01-24T01:56:18.414Z,0.00
2019-01-24T01:57:18.403Z,0.00
2019-01-24T01:58:18.396Z,0.00
2019-01-24T01:59:18.686Z,0.00
2019-01-24T02:00:18.387Z,0.00
2019-01-24T02:01:18.364Z,0.00
2019-01-24T02:02:18.397Z,0.00
2019-01-24T02:03:18.345Z,0.00
2019-01-24T02:04:18.332Z,0.00
2019-01-24T02:05:18.633Z,0.00
2019-01-24T02:06:18.315Z,0.00
2019-01-24T02:07:18.303Z,0.00
2019-01-24T02:08:18.290Z,0.00
2019-01-24T02:09:18.281Z,0.00
2019-01-24T02:10:18.272Z,0.00
2019-01-24T02:11:18.289Z,0.00
2019-01-24T02:12:18.559Z,0.00
2019-01-24T02:13:18.252Z,0.00
2019-01-24T02:14:18.229Z,0.00
2019-01-24T02:15:18.220Z,0.00
2019-01-24T02:16:18.230Z,0.00
2019-01-24T02:17:18.234Z,0.00
2019-01-24T02:18:18.188Z,0.00
2019-01-24T02:19:18.477Z,0.00
2019-01-24T02:20:18.167Z,0.00
2019-01-24T02:21:18.164Z,0.00
2019-01-24T02:22:18.148Z,0.00
2019-01-24T02:23:18.165Z,0.00
2019-01-24T02:24:18.129Z,0.00
2019-01-24T02:25:18.123Z,0.00
2019-01-24T02:26:18.403Z,0.00
2019-01-24T02:27:18.102Z,0.00
2019-01-24T02:28:18.086Z,0.00
2019-01-24T02:29:18.121Z,0.00
2019-01-24T02:30:18.066Z,0.00
2019-01-24T02:31:18.058Z,0.00
2019-01-24T02:32:18.045Z,0.00
2019-01-24T02:33:18.042Z,0.00
2019-01-24T02:34:18.024Z,0.00
2019-01-24T02:35:18.303Z,0.00
2019-01-24T02:36:18.016Z,0.00
2019-01-24T02:37:18.024Z,0.00
2019-01-24T02:38:17.986Z,0.00
2019-01-24T02:39:17.981Z,0.00
2019-01-24T02:40:17.963Z,0.00
2019-01-24T02:41:18.087Z,0.00
2019-01-24T02:42:17.949Z,0.00
2019-01-24T02:43:17.943Z,0.00
2019-01-24T02:44:17.929Z,0.00
2019-01-24T02:45:18.197Z,0.00
2019-01-24T02:46:17.909Z,0.00
2019-01-24T02:47:17.921Z,0.00
2019-01-24T02:48:17.883Z,0.00
2019-01-24T02:49:17.872Z,0.00
2019-01-24T02:50:17.880Z,0.00
2019-01-24T02:51:17.852Z,0.00
2019-01-24T02:52:17.847Z,0.00
2019-01-24T02:53:17.883Z,0.00
2019-01-24T02:54:17.844Z,0.00
2019-01-24T02:55:17.813Z,0.00
2019-01-24T02:56:17.825Z,0.00
2019-01-24T02:57:18.897Z,0.00
2019-01-24T02:58:17.785Z,0.00
2019-01-24T02:59:17.797Z,0.00
2019-01-24T03:01:40.050Z,0.00
2019-01-24T03:02:39.309Z,0.00
2019-01-24T03:03:39.300Z,0.00
2019-01-24T03:04:39.305Z,0.00
2019-01-24T03:05:39.297Z,0.00
2019-01-24T03:06:39.287Z,0.00
2019-01-24T03:07:39.925Z,0.00
2019-01-24T03:08:39.251Z,0.00
2019-01-24T03:09:39.240Z,0.00
2019-01-24T03:10:39.230Z,0.00
2019-01-24T03:11:39.225Z,0.00
2019-01-24T03:12:39.245Z,0.00
2019-01-24T03:13:39.238Z,0.00
2019-01-24T03:14:39.481Z,0.00
2019-01-24T03:15:39.180Z,0.00
2019-01-24T03:16:39.182Z,0.00
2019-01-24T03:17:39.161Z,0.00
2019-01-24T03:18:39.154Z,0.00
2019-01-24T03:19:39.288Z,0.00
2019-01-24T03:20:39.126Z,0.00
2019-01-24T03:21:39.412Z,0.00
2019-01-24T03:22:39.110Z,0.00
2019-01-24T03:23:39.098Z,0.00
2019-01-24T03:24:39.086Z,0.00
2019-01-24T03:25:39.128Z,0.00
2019-01-24T03:26:39.065Z,0.00
2019-01-24T03:27:39.057Z,0.00
2019-01-24T03:28:39.353Z,0.00
2019-01-24T03:29:39.038Z,0.00
2019-01-24T03:30:39.027Z,0.00
2019-01-24T03:31:39.074Z,0.00
2019-01-24T03:32:39.007Z,0.00
2019-01-24T03:33:39.011Z,0.00
2019-01-24T03:34:39.007Z,0.00
2019-01-24T03:35:39.280Z,0.00
2019-01-24T03:36:38.963Z,0.00
2019-01-24T03:37:39.276Z,0.00
2019-01-24T03:38:38.942Z,0.00
2019-01-24T03:39:38.939Z,0.00
2019-01-24T03:40:38.933Z,0.00
2019-01-24T03:41:38.912Z,0.00
2019-01-24T03:42:39.195Z,0.00
2019-01-24T03:43:38.933Z,0.00
2019-01-24T03:44:38.883Z,0.00
2019-01-24T03:45:38.877Z,0.00
2019-01-24T03:46:38.863Z,0.00
2019-01-24T03:47:38.880Z,0.00
2019-01-24T03:48:38.858Z,0.00
2019-01-24T03:49:39.149Z,0.00
2019-01-24T03:50:38.825Z,0.00
2019-01-24T03:51:38.822Z,0.00
2019-01-24T03:52:38.801Z,0.00
2019-01-24T03:53:38.808Z,0.00
2019-01-24T03:54:38.785Z,0.00
2019-01-24T03:55:38.863Z,0.00
2019-01-24T03:56:39.046Z,0.00
2019-01-24T03:57:38.754Z,0.00
2019-01-24T03:58:38.738Z,0.00
2019-01-24T03:59:38.729Z,0.00
2019-01-24T04:00:38.720Z,0.00
2019-01-24T04:01:38.758Z,0.00
2019-01-24T04:02:38.701Z,0.00
2019-01-24T04:03:38.983Z,0.00
2019-01-24T04:04:38.677Z,0.00
2019-01-24T04:05:38.675Z,0.00
2019-01-24T04:06:38.669Z,0.00
2019-01-24T04:07:38.693Z,0.00
2019-01-24T04:08:38.660Z,0.00
2019-01-24T04:09:38.630Z,0.00
2019-01-24T04:10:38.905Z,0.00
2019-01-24T04:11:38.633Z,0.00
2019-01-24T04:12:38.596Z,0.00
2019-01-24T04:13:38.655Z,0.00
2019-01-24T04:14:38.577Z,0.00
2019-01-24T04:15:38.576Z,0.00
2019-01-24T04:16:38.559Z,0.00
2019-01-24T04:17:39.938Z,0.00
2019-01-24T04:18:38.539Z,0.00
2019-01-24T04:19:38.570Z,0.00
2019-01-24T04:20:38.514Z,0.00
2019-01-24T04:21:38.509Z,0.00
2019-01-24T04:22:38.497Z,0.00
2019-01-24T04:23:38.483Z,0.00
2019-01-24T04:24:38.478Z,0.00
2019-01-24T04:25:38.511Z,0.00
2019-01-24T04:26:38.455Z,0.00
2019-01-24T04:27:38.446Z,0.00
2019-01-24T04:28:38.433Z,0.00
2019-01-24T04:29:38.704Z,0.00
2019-01-24T04:30:38.416Z,0.00
2019-01-24T04:31:38.625Z,0.00
2019-01-24T04:32:38.395Z,0.00
2019-01-24T04:33:38.384Z,0.00
2019-01-24T04:34:38.371Z,0.00
2019-01-24T04:35:38.360Z,0.00
2019-01-24T04:36:38.355Z,0.00
2019-01-24T04:37:38.378Z,0.00
2019-01-24T04:38:38.329Z,0.00
2019-01-24T04:39:38.324Z,0.00
2019-01-24T04:40:38.308Z,0.00
2019-01-24T04:41:38.591Z,0.00
2019-01-24T04:42:38.288Z,0.00
2019-01-24T04:43:38.316Z,0.00
2019-01-24T04:44:38.280Z,0.00
2019-01-24T04:45:38.258Z,0.00
2019-01-24T04:46:38.249Z,0.00
2019-01-24T04:47:38.238Z,0.00
2019-01-24T04:48:38.517Z,0.00
2019-01-24T04:49:38.278Z,0.00
2019-01-24T04:50:38.209Z,0.00
2019-01-24T04:51:38.225Z,0.00
2019-01-24T04:52:38.187Z,0.00
2019-01-24T04:53:38.185Z,0.00
2019-01-24T04:54:38.165Z,0.00
2019-01-24T04:55:38.494Z,0.00
2019-01-24T04:56:38.147Z,0.00
2019-01-24T04:57:38.138Z,0.00
2019-01-24T04:58:38.138Z,0.00
2019-01-24T04:59:38.123Z,0.00
2019-01-24T05:00:38.120Z,0.00
2019-01-24T05:01:38.414Z,0.00
2019-01-24T05:02:38.195Z,0.00
2019-01-24T05:03:38.087Z,0.00
2019-01-24T05:04:38.065Z,0.00
2019-01-24T05:05:38.108Z,0.00
2019-01-24T05:06:38.049Z,0.00
2019-01-24T05:07:38.094Z,0.00
2019-01-24T05:08:38.504Z,0.00
2019-01-24T05:09:38.016Z,0.00
2019-01-24T05:10:38.008Z,0.00
2019-01-24T05:11:37.993Z,0.00
2019-01-24T05:12:37.981Z,0.00
2019-01-24T05:13:38.009Z,0.00
2019-01-24T05:14:37.983Z,0.00
2019-01-24T05:15:38.265Z,0.00
2019-01-24T05:16:37.948Z,0.00
2019-01-24T05:17:37.933Z,0.00
2019-01-24T05:18:37.933Z,0.00
2019-01-24T05:19:37.971Z,0.00
2019-01-24T05:20:37.899Z,0.00
2019-01-24T05:21:37.911Z,0.00
2019-01-24T05:22:38.304Z,0.00
2019-01-24T05:23:37.974Z,0.00
2019-01-24T05:24:37.859Z,0.00
2019-01-24T05:25:38.349Z,0.00
2019-01-24T05:26:37.838Z,0.00
2019-01-24T05:27:37.862Z,0.00
2019-01-24T05:28:37.821Z,0.00
2019-01-24T05:29:38.313Z,0.00
2019-01-24T05:30:37.801Z,0.00
2019-01-24T05:31:37.824Z,0.00
2019-01-24T05:32:37.788Z,0.00
2019-01-24T05:33:37.780Z,0.00
2019-01-24T05:34:37.796Z,0.00
2019-01-24T05:35:37.769Z,0.00
2019-01-24T05:36:38.024Z,0.00
2019-01-24T05:37:37.766Z,0.00
2019-01-24T05:38:37.716Z,0.00
2019-01-24T05:39:37.706Z,0.00
2019-01-24T05:40:37.698Z,0.00
2019-01-24T05:41:37.690Z,0.00
2019-01-24T05:42:37.687Z,0.00
2019-01-24T05:43:38.033Z,0.00
2019-01-24T05:44:37.667Z,0.00
2019-01-24T05:45:37.651Z,0.00
2019-01-24T05:46:37.646Z,0.00
2019-01-24T05:47:37.629Z,0.00
2019-01-24T05:48:37.615Z,0.00
2019-01-24T05:49:37.645Z,0.00
2019-01-24T05:50:37.911Z,0.00
2019-01-24T05:51:37.585Z,0.00
2019-01-24T05:52:37.576Z,0.00
2019-01-24T05:53:37.573Z,0.00
2019-01-24T05:54:37.562Z,0.00
2019-01-24T05:55:37.582Z,0.00
2019-01-24T05:56:37.541Z,0.00
2019-01-24T05:57:37.813Z,0.00
2019-01-24T05:58:37.515Z,0.00
2019-01-24T05:59:37.500Z,0.00
2019-01-24T06:00:37.493Z,0.00
2019-01-24T06:01:37.621Z,0.00
2019-01-24T06:02:37.485Z,0.00
2019-01-24T06:03:37.461Z,0.00
2019-01-24T06:04:37.737Z,0.00
2019-01-24T06:05:41.763Z,0.00
2019-01-24T06:06:37.430Z,0.00
2019-01-24T06:07:37.458Z,0.00
2019-01-24T06:08:37.414Z,0.00
2019-01-24T06:09:37.405Z,0.00
2019-01-24T06:10:37.398Z,0.00
2019-01-24T06:11:37.658Z,0.00
2019-01-24T06:12:37.369Z,0.00
2019-01-24T06:13:37.396Z,0.00
2019-01-24T06:14:37.366Z,0.00
2019-01-24T06:15:37.342Z,0.00
2019-01-24T06:16:37.333Z,0.00
2019-01-24T06:17:37.323Z,0.00
2019-01-24T06:18:37.774Z,0.00
2019-01-24T06:19:37.370Z,0.00
2019-01-24T06:20:37.304Z,0.00
2019-01-24T06:21:37.287Z,0.00
2019-01-24T06:22:37.270Z,0.00
2019-01-24T06:23:37.505Z,0.00
2019-01-24T06:24:37.347Z,0.00
2019-01-24T06:25:37.639Z,0.00
2019-01-24T06:26:37.231Z,0.00
2019-01-24T06:27:37.218Z,0.00
2019-01-24T06:28:37.215Z,0.00
2019-01-24T06:29:37.217Z,0.00
2019-01-24T06:30:37.190Z,0.00
2019-01-24T06:31:37.613Z,0.00
2019-01-24T06:32:37.168Z,0.00
2019-01-24T06:33:37.160Z,0.00
2019-01-24T06:34:37.169Z,0.00
2019-01-24T06:35:37.175Z,0.00
2019-01-24T06:36:37.125Z,0.00
2019-01-24T06:37:37.504Z,0.00
2019-01-24T06:38:37.104Z,0.00
2019-01-24T06:39:37.096Z,0.00
2019-01-24T06:40:37.097Z,0.00
2019-01-24T06:41:37.072Z,0.00
2019-01-24T06:42:37.076Z,0.00
2019-01-24T06:43:37.093Z,0.00
2019-01-24T06:44:37.341Z,0.00
2019-01-24T06:45:37.032Z,0.00
2019-01-24T06:46:37.023Z,0.00
2019-01-24T06:47:37.012Z,0.00
2019-01-24T06:48:37.004Z,0.00
2019-01-24T06:49:37.041Z,0.00
2019-01-24T06:50:37.623Z,0.00
2019-01-24T06:51:36.977Z,0.00
2019-01-24T06:52:36.962Z,0.00
2019-01-24T06:53:36.954Z,0.00
2019-01-24T06:54:36.939Z,0.00
2019-01-24T06:55:37.324Z,0.00
2019-01-24T06:56:37.205Z,0.00
2019-01-24T06:57:36.963Z,0.00
2019-01-24T06:58:36.957Z,0.00
2019-01-24T06:59:36.916Z,0.00
2019-01-24T07:00:36.881Z,0.00
2019-01-24T07:01:36.931Z,0.00
2019-01-24T07:02:36.866Z,0.00
2019-01-24T07:03:36.849Z,0.00
2019-01-24T07:04:36.924Z,0.00
2019-01-24T07:05:36.839Z,0.00
2019-01-24T07:06:36.855Z,0.00
2019-01-24T07:07:37.977Z,0.00
2019-01-24T07:08:37.098Z,0.00
2019-01-24T07:09:36.786Z,0.00
2019-01-24T07:10:36.888Z,0.00
2019-01-24T07:11:36.774Z,0.00
2019-01-24T07:12:36.794Z,0.00
2019-01-24T07:13:36.814Z,0.00
2019-01-24T07:14:36.750Z,0.00
2019-01-24T07:15:37.019Z,0.00
2019-01-24T07:16:36.715Z,0.00
2019-01-24T07:17:36.726Z,0.00
2019-01-24T07:18:36.696Z,0.00
2019-01-24T07:19:36.716Z,0.00
2019-01-24T07:20:36.676Z,0.00
2019-01-24T07:21:36.711Z,0.00
2019-01-24T07:22:37.123Z,0.00
2019-01-24T07:23:36.715Z,0.00
2019-01-24T07:24:36.642Z,0.00
2019-01-24T07:25:36.690Z,0.00
2019-01-24T07:26:36.617Z,0.00
2019-01-24T07:27:36.602Z,0.00
2019-01-24T07:28:36.623Z,0.00
2019-01-24T07:29:37.589Z,0.00
2019-01-24T07:30:36.609Z,0.00
2019-01-24T07:31:36.616Z,0.00
2019-01-24T07:32:36.555Z,0.00
2019-01-24T07:33:36.541Z,0.00
2019-01-24T07:34:36.532Z,0.00
2019-01-24T07:35:36.521Z,0.00
2019-01-24T07:36:36.794Z,0.00
2019-01-24T07:37:36.545Z,0.00
2019-01-24T07:38:36.495Z,0.00
2019-01-24T07:39:36.481Z,0.00
2019-01-24T07:40:36.579Z,0.00
2019-01-24T07:41:36.479Z,0.00
2019-01-24T07:42:36.589Z,0.00
2019-01-24T07:43:37.201Z,0.00
2019-01-24T07:44:36.428Z,0.00
2019-01-24T07:45:36.422Z,0.00
2019-01-24T07:46:36.414Z,0.00
2019-01-24T07:47:36.399Z,0.00
2019-01-24T07:48:36.390Z,0.00
2019-01-24T07:49:36.532Z,0.00
2019-01-24T07:50:36.775Z,0.00
2019-01-24T07:51:36.365Z,5.62
2019-01-24T07:52:36.352Z,5.62
2019-01-24T07:53:36.559Z,5.62
2019-01-24T07:54:36.547Z,5.62
2019-01-24T07:55:36.757Z,5.62
2019-01-24T07:56:36.350Z,5.62
2019-01-24T07:57:36.724Z,5.62
2019-01-24T07:58:36.376Z,5.62
2019-01-24T07:59:36.315Z,5.62
2019-01-24T08:00:36.270Z,5.62
2019-01-24T08:01:36.304Z,5.62
2019-01-24T08:02:36.247Z,5.62
2019-01-24T08:03:36.249Z,11.25
2019-01-24T08:04:36.624Z,11.25
2019-01-24T08:05:36.215Z,11.25
2019-01-24T08:06:36.207Z,11.25
2019-01-24T08:07:36.241Z,11.25
2019-01-24T08:08:36.198Z,11.25
2019-01-24T08:09:36.201Z,11.25
2019-01-24T08:10:36.173Z,11.25
2019-01-24T08:11:36.445Z,11.25
2019-01-24T08:12:36.160Z,11.25
2019-01-24T08:13:36.264Z,11.25
2019-01-24T08:14:36.122Z,11.25
2019-01-24T08:15:36.118Z,11.25
2019-01-24T08:16:36.102Z,11.25
2019-01-24T08:17:36.099Z,11.25
2019-01-24T08:18:36.367Z,11.25
2019-01-24T08:19:36.210Z,11.25
2019-01-24T08:20:36.065Z,11.25
2019-01-24T08:21:36.073Z,11.25
2019-01-24T08:22:36.056Z,11.25
2019-01-24T08:23:36.053Z,16.88
2019-01-24T08:24:36.020Z,16.88
2019-01-24T08:25:36.392Z,16.88
2019-01-24T08:26:36.001Z,16.88
2019-01-24T08:27:36.063Z,16.88
2019-01-24T08:28:36.049Z,16.88
2019-01-24T08:29:36.221Z,16.88
2019-01-24T08:30:35.969Z,16.88
2019-01-24T08:31:36.423Z,22.50
2019-01-24T08:32:35.939Z,22.50
2019-01-24T08:33:36.609Z,22.50
2019-01-24T08:34:35.918Z,22.50
2019-01-24T08:35:36.598Z,22.50
2019-01-24T08:36:36.783Z,22.50
2019-01-24T08:37:35.933Z,22.50
2019-01-24T08:38:35.900Z,28.12
2019-01-24T08:39:35.870Z,28.12
2019-01-24T08:40:35.860Z,28.12
2019-01-24T08:41:35.847Z,28.12
2019-01-24T08:42:35.838Z,28.12
2019-01-24T08:43:36.320Z,33.75
2019-01-24T08:44:35.816Z,39.38
2019-01-24T08:45:35.855Z,39.38
2019-01-24T08:46:36.159Z,39.38
2019-01-24T08:47:35.791Z,45.00
2019-01-24T08:48:35.778Z,45.00
2019-01-24T08:49:35.928Z,45.00
2019-01-24T08:50:35.756Z,45.00
2019-01-24T08:51:35.744Z,39.38
2019-01-24T08:52:35.734Z,39.38
2019-01-24T08:53:35.726Z,39.38
2019-01-24T08:54:35.718Z,45.00
2019-01-24T08:55:36.607Z,45.00
2019-01-24T08:56:35.696Z,45.00
2019-01-24T08:57:35.717Z,50.62
2019-01-24T08:58:35.679Z,50.62
2019-01-24T08:59:35.671Z,50.62
2019-01-24T09:00:35.652Z,50.62
2019-01-24T09:01:36.029Z,50.62
2019-01-24T09:02:35.659Z,50.62
2019-01-24T09:03:35.629Z,50.62
2019-01-24T09:04:35.664Z,50.62
2019-01-24T09:05:35.601Z,50.62
2019-01-24T09:06:35.596Z,50.62
2019-01-24T09:07:35.804Z,50.62
2019-01-24T09:08:36.023Z,50.62
2019-01-24T09:09:35.635Z,50.62
2019-01-24T09:10:35.631Z,50.62
2019-01-24T09:11:35.663Z,56.25
2019-01-24T09:12:35.684Z,56.25
2019-01-24T09:13:35.589Z,56.25
2019-01-24T09:14:35.569Z,56.25
2019-01-24T09:15:35.498Z,61.88
2019-01-24T09:16:35.512Z,61.88
2019-01-24T09:17:35.510Z,56.25
2019-01-24T09:18:35.513Z,56.25
2019-01-24T09:19:35.520Z,61.88
2019-01-24T09:20:35.456Z,61.88
2019-01-24T09:21:35.729Z,56.25
2019-01-24T09:22:35.438Z,61.88
2019-01-24T09:23:35.420Z,61.88
2019-01-24T09:24:35.407Z,61.88
2019-01-24T09:25:35.477Z,61.88
2019-01-24T09:26:35.387Z,61.88
2019-01-24T09:27:35.377Z,61.88
2019-01-24T09:28:35.690Z,61.88
2019-01-24T09:29:35.362Z,67.50
2019-01-24T09:30:35.351Z,67.50
2019-01-24T09:31:35.370Z,67.50
2019-01-24T09:32:35.331Z,67.50
2019-01-24T09:33:35.315Z,67.50
2019-01-24T09:34:35.318Z,67.50
2019-01-24T09:35:35.680Z,67.50
2019-01-24T09:36:35.308Z,67.50
2019-01-24T09:37:35.326Z,67.50
2019-01-24T09:38:35.272Z,67.50
2019-01-24T09:39:35.292Z,61.88
2019-01-24T09:40:35.269Z,61.88
2019-01-24T09:41:35.233Z,67.50
2019-01-24T09:42:35.547Z,67.50
2019-01-24T09:43:35.242Z,67.50
2019-01-24T09:44:35.206Z,61.88
2019-01-24T09:45:35.214Z,67.50
2019-01-24T09:46:35.186Z,67.50
2019-01-24T09:47:35.175Z,67.50
2019-01-24T09:48:35.163Z,73.12
2019-01-24T09:49:35.472Z,73.12
2019-01-24T09:50:35.190Z,73.12
2019-01-24T09:51:35.131Z,67.50
2019-01-24T09:52:36.272Z,73.12
2019-01-24T09:53:35.185Z,78.75
2019-01-24T09:54:36.080Z,84.38
2019-01-24T09:55:37.637Z,84.38
2019-01-24T09:56:35.129Z,90.00
2019-01-24T09:57:35.596Z,90.00
2019-01-24T09:58:35.061Z,84.38
2019-01-24T09:59:36.069Z,73.12
2019-01-24T10:00:35.039Z,67.50
2019-01-24T10:01:35.056Z,67.50
2019-01-24T10:02:35.574Z,67.50
2019-01-24T10:03:35.646Z,67.50
2019-01-24T10:04:35.674Z,67.50
2019-01-24T10:05:35.000Z,67.50
2019-01-24T10:06:36.393Z,73.12
2019-01-24T10:07:35.324Z,73.12
2019-01-24T10:08:34.958Z,78.75
2019-01-24T10:09:34.980Z,78.75
2019-01-24T10:10:34.950Z,78.75
2019-01-24T10:11:34.994Z,78.75
2019-01-24T10:12:36.175Z,73.12
2019-01-24T10:13:34.943Z,73.12
2019-01-24T10:14:34.899Z,67.50
2019-01-24T10:15:34.888Z,67.50
2019-01-24T10:16:34.889Z,67.50
2019-01-24T10:17:35.534Z,67.50
2019-01-24T10:18:34.856Z,67.50
2019-01-24T10:19:34.896Z,67.50
2019-01-24T10:20:34.839Z,67.50
2019-01-24T10:21:34.866Z,67.50
2019-01-24T10:22:35.134Z,67.50
2019-01-24T10:23:34.803Z,67.50
2019-01-24T10:24:34.857Z,67.50
2019-01-24T10:25:35.270Z,67.50
2019-01-24T10:26:34.775Z,67.50
2019-01-24T10:27:34.765Z,73.12
2019-01-24T10:28:34.756Z,78.75
2019-01-24T10:29:34.785Z,78.75
2019-01-24T10:30:34.776Z,78.75
2019-01-24T10:31:35.234Z,78.75
2019-01-24T10:32:34.845Z,84.38
2019-01-24T10:33:34.773Z,84.38
2019-01-24T10:34:34.695Z,84.38
2019-01-24T10:35:34.796Z,84.38
2019-01-24T10:36:34.759Z,78.75
2019-01-24T10:37:35.503Z,73.12
2019-01-24T10:38:35.245Z,73.12
2019-01-24T10:39:34.781Z,73.12
2019-01-24T10:40:34.640Z,78.75
2019-01-24T10:41:34.712Z,78.75
2019-01-24T10:42:34.661Z,84.38
2019-01-24T10:43:34.896Z,84.38
2019-01-24T10:44:34.682Z,84.38
2019-01-24T10:45:35.071Z,90.00
2019-01-24T10:46:34.663Z,84.38
2019-01-24T10:47:34.659Z,84.38
2019-01-24T10:48:34.715Z,78.75
2019-01-24T10:49:34.644Z,78.75
2019-01-24T10:50:35.293Z,78.75
2019-01-24T10:51:34.521Z,90.00
2019-01-24T10:52:34.985Z,90.00
2019-01-24T10:53:34.525Z,90.00
2019-01-24T10:54:34.627Z,95.62
2019-01-24T10:55:34.504Z,95.62
2019-01-24T10:56:35.324Z,95.62
2019-01-24T10:57:34.464Z,95.62
2019-01-24T10:58:34.597Z,95.62
2019-01-24T10:59:34.458Z,90.00
2019-01-24T11:00:34.428Z,84.38
2019-01-24T11:01:34.445Z,84.38
2019-01-24T11:02:34.407Z,84.38
2019-01-24T11:03:34.451Z,90.00
2019-01-24T11:04:34.389Z,90.00
2019-01-24T11:05:34.867Z,90.00
2019-01-24T11:06:34.364Z,90.00
2019-01-24T11:07:34.451Z,84.38
2019-01-24T11:08:34.364Z,90.00
2019-01-24T11:09:34.337Z,84.38
2019-01-24T11:10:34.326Z,84.38
2019-01-24T11:11:34.334Z,84.38
2019-01-24T11:12:34.302Z,90.00
2019-01-24T11:13:34.345Z,90.00
2019-01-24T11:14:34.282Z,95.62
2019-01-24T11:15:35.513Z,90.00
2019-01-24T11:16:34.409Z,84.38
2019-01-24T11:17:34.909Z,95.62
2019-01-24T11:18:34.359Z,90.00
2019-01-24T11:19:34.416Z,90.00
2019-01-24T11:20:34.392Z,95.62
2019-01-24T11:21:34.368Z,101.25
2019-01-24T11:22:34.215Z,101.25
2019-01-24T11:23:34.207Z,106.88
2019-01-24T11:24:34.229Z,106.88
2019-01-24T11:25:34.383Z,101.25
2019-01-24T11:26:34.168Z,101.25
2019-01-24T11:27:34.160Z,95.62
2019-01-24T11:28:34.141Z,90.00
2019-01-24T11:29:34.149Z,95.62
2019-01-24T11:30:34.130Z,95.62
2019-01-24T11:31:34.145Z,101.25
2019-01-24T11:32:34.127Z,101.25
2019-01-24T11:33:34.101Z,106.88
2019-01-24T11:34:34.146Z,106.88
2019-01-24T11:35:34.470Z,112.50
2019-01-24T11:36:34.120Z,118.12
2019-01-24T11:37:37.091Z,123.75
2019-01-24T11:38:34.560Z,135.00
2019-01-24T11:39:34.286Z,151.88
2019-01-24T11:40:34.549Z,163.12
2019-01-24T11:41:34.004Z,191.25
2019-01-24T11:42:34.477Z,219.38
2019-01-24T11:43:34.024Z,230.62
2019-01-24T11:44:33.979Z,219.38
2019-01-24T11:45:33.988Z,213.75
2019-01-24T11:46:33.975Z,208.12
2019-01-24T11:47:33.954Z,202.50
2019-01-24T11:48:33.935Z,196.88
2019-01-24T11:49:34.312Z,185.62
2019-01-24T11:50:34.550Z,185.62
2019-01-24T11:51:33.923Z,168.75
2019-01-24T11:52:33.891Z,168.75
2019-01-24T11:53:33.881Z,174.38
2019-01-24T11:54:33.871Z,174.38
2019-01-24T11:55:33.886Z,163.12
2019-01-24T11:56:34.180Z,157.50
2019-01-24T11:57:33.838Z,146.25
2019-01-24T11:58:33.840Z,135.00
2019-01-24T11:59:33.839Z,129.38
2019-01-24T12:00:34.168Z,140.62
2019-01-24T12:01:34.048Z,163.12
2019-01-24T12:02:39.711Z,180.00
2019-01-24T12:03:35.204Z,191.25
2019-01-24T12:04:33.853Z,196.88
2019-01-24T12:05:34.566Z,191.25
2019-01-24T12:06:33.969Z,191.25
2019-01-24T12:07:33.998Z,196.88
2019-01-24T12:08:34.132Z,185.62
2019-01-24T12:09:33.847Z,180.00
2019-01-24T12:10:34.895Z,196.88
2019-01-24T12:11:34.562Z,213.75
2019-01-24T12:12:33.681Z,241.88
2019-01-24T12:13:33.721Z,298.12
2019-01-24T12:14:33.666Z,320.62
2019-01-24T12:15:33.655Z,315.00
2019-01-24T12:16:33.678Z,360.00
2019-01-24T12:17:33.635Z,461.25
2019-01-24T12:18:33.634Z,489.38
2019-01-24T12:19:34.466Z,444.38
2019-01-24T12:20:33.602Z,455.62
2019-01-24T12:21:33.593Z,556.88
2019-01-24T12:22:33.598Z,613.12
2019-01-24T12:23:35.011Z,691.88
2019-01-24T12:24:33.606Z,714.38
2019-01-24T12:25:33.648Z,686.25
2019-01-24T12:26:33.548Z,663.75
2019-01-24T12:27:33.789Z,624.38
2019-01-24T12:28:33.521Z,545.62
2019-01-24T12:29:33.512Z,534.38
2019-01-24T12:30:33.504Z,489.38
2019-01-24T12:31:33.515Z,551.25
2019-01-24T12:32:33.994Z,601.88
2019-01-24T12:33:33.509Z,663.75
2019-01-24T12:34:33.452Z,652.50
2019-01-24T12:35:34.274Z,483.75
2019-01-24T12:36:33.821Z,275.62
2019-01-24T12:37:33.511Z,461.25
2019-01-24T12:38:33.469Z,264.38
2019-01-24T12:39:33.423Z,213.75
2019-01-24T12:40:33.426Z,213.75
2019-01-24T12:41:33.381Z,241.88
2019-01-24T12:42:33.379Z,236.25
2019-01-24T12:43:33.407Z,225.00
2019-01-24T12:44:33.354Z,247.50
2019-01-24T12:45:33.341Z,281.25
2019-01-24T12:46:33.329Z,427.50
2019-01-24T12:47:33.314Z,399.38
2019-01-24T12:48:33.303Z,292.50
2019-01-24T12:49:33.347Z,241.88
2019-01-24T12:50:33.341Z,236.25
2019-01-24T12:51:33.416Z,230.62
2019-01-24T12:52:33.399Z,225.00
2019-01-24T12:53:33.771Z,219.38
2019-01-24T12:54:33.285Z,219.38
2019-01-24T12:55:35.628Z,213.75
2019-01-24T12:56:33.224Z,208.12
2019-01-24T12:57:33.209Z,208.12
2019-01-24T12:58:33.199Z,213.75
2019-01-24T12:59:33.187Z,213.75
2019-01-24T13:00:34.627Z,213.75
2019-01-24T13:01:33.219Z,213.75
2019-01-24T13:02:33.387Z,208.12
2019-01-24T13:03:33.147Z,208.12
2019-01-24T13:04:33.141Z,208.12
2019-01-24T13:05:33.126Z,202.50